Terminal Aerodrome Forecast
Issued by NWS

Home | Current Version | Previous Version | Graphics & Text | Print | Product List | Glossary On
Versions: 1 2 3 4 5 6 7 8 9 10 11 12 13 14 15 16
379
FTUS43 KGRB 211720
TAFCWA
TAF
KCWA 211720Z 2118/2218 18008KT P6SM SCT060 BKN250
     FM220200 14007KT P6SM VCTS BKN080CB WS016/19040KT
      TEMPO 2203/2207 2SM TSRA BR BKN030CB
     FM220700 18006KT 3SM TSRA BR BKN025CB WS015/25045KT
     FM221000 21007KT 4SM BR VCSH BKN006 WS015/27035KT
     FM221400 25009G14KT P6SM BKN012
     FM221600 27010G18KT P6SM BKN024=

USA.gov is the U.S. government's official web portal to all federal, state and local government web resources and services.